Terminal Aerodrome Forecast
Issued by NWS

Home | Current Version | Previous Version | Text Only | Print | Product List | Glossary On
Versions: 1 2 3 4 5 6 7 8 9 10 11 12 13 14 15 16 17 18 19 20 21 22
000
FTUS44 KLZK 020600 AAA
TAFADF
TAF AMD
KADF 020649Z 0207/0306 20008KT P6SM BKN025
     FM021000 19009KT P6SM OVC015 WS020/22040KT
      TEMPO 0211/0213 OVC005
     FM021300 20008G18KT P6SM VCSH BKN015 OVC030
     FM021700 20010G20KT P6SM SCT025 BKN035=

USA.gov is the U.S. government's official web portal to all federal, state and local government web resources and services.